EJU4PM EETN-EFHK
Flight info
| Callsign | EJU4PM |
|---|---|
| Flight time | 0h 19m |
| Altitude | 11000 |
| Route | INTOR |
| Aircraft | A320/M-SDE3FGHIRWY/LB1 |
Departure
| Time | 2026-05-05 14:42 |
|---|---|
| Airport | Lennart Meri Tallinn Airport (EETN) |
Arrival
| Time | 2026-05-05 15:01 |
|---|---|
| Airport | Helsinki Vantaa Airport (EFHK) |
| Time | Latitude | Longitude | Altitude | Speed | Heading |
|---|---|---|---|---|---|
| 2026-05-05 14:25 | 59.41592 | 24.81038 | 139 ft | 0 kts | 180° |
| 2026-05-05 14:36 | 59.41588 | 24.81038 | 139 ft | 3 kts | 180° |
| 2026-05-05 14:36 | 59.41528 | 24.81042 | 139 ft | 12 kts | 169° |
| 2026-05-05 14:36 | 59.41504 | 24.81212 | 139 ft | 17 kts | 90° |
| 2026-05-05 14:37 | 59.41503 | 24.81467 | 139 ft | 18 kts | 90° |
| 2026-05-05 14:37 | 59.41502 | 24.81709 | 139 ft | 17 kts | 90° |
| 2026-05-05 14:37 | 59.41502 | 24.81941 | 139 ft | 18 kts | 90° |
| 2026-05-05 14:37 | 59.41501 | 24.82206 | 139 ft | 19 kts | 91° |
| 2026-05-05 14:38 | 59.41501 | 24.82457 | 139 ft | 18 kts | 90° |
| 2026-05-05 14:38 | 59.41501 | 24.82688 | 139 ft | 16 kts | 90° |
| 2026-05-05 14:38 | 59.41501 | 24.82900 | 140 ft | 15 kts | 90° |
| 2026-05-05 14:38 | 59.41500 | 24.83090 | 140 ft | 13 kts | 90° |
| 2026-05-05 14:39 | 59.41499 | 24.83294 | 140 ft | 18 kts | 91° |
| 2026-05-05 14:39 | 59.41498 | 24.83565 | 140 ft | 20 kts | 90° |
| 2026-05-05 14:39 | 59.41498 | 24.83831 | 140 ft | 19 kts | 90° |
| 2026-05-05 14:39 | 59.41498 | 24.84112 | 140 ft | 20 kts | 90° |
| 2026-05-05 14:40 | 59.41497 | 24.84380 | 140 ft | 19 kts | 90° |
| 2026-05-05 14:40 | 59.41496 | 24.84626 | 141 ft | 17 kts | 90° |
| 2026-05-05 14:40 | 59.41497 | 24.84853 | 141 ft | 16 kts | 90° |
| 2026-05-05 14:40 | 59.41446 | 24.84996 | 141 ft | 13 kts | 165° |
| 2026-05-05 14:41 | 59.41360 | 24.84991 | 141 ft | 13 kts | 199° |
| 2026-05-05 14:41 | 59.41319 | 24.84810 | 140 ft | 20 kts | 273° |
| 2026-05-05 14:41 | 59.41327 | 24.84030 | 139 ft | 99 kts | 271° |
| 2026-05-05 14:41 | 59.41378 | 24.82240 | 286 ft | 154 kts | 274° |
| 2026-05-05 14:42 | 59.41396 | 24.80065 | 1115 ft | 159 kts | 270° |
| 2026-05-05 14:42 | 59.41522 | 24.77793 | 1867 ft | 181 kts | 294° |
| 2026-05-05 14:42 | 59.42509 | 24.76031 | 2575 ft | 214 kts | 338° |
| 2026-05-05 14:42 | 59.44108 | 24.75778 | 3353 ft | 248 kts | 0° |
| 2026-05-05 14:43 | 59.45867 | 24.76310 | 4111 ft | 263 kts | 7° |
| 2026-05-05 14:43 | 59.47683 | 24.77124 | 4944 ft | 272 kts | 8° |
| 2026-05-05 14:43 | 59.49524 | 24.77991 | 5783 ft | 279 kts | 7° |
| 2026-05-05 14:43 | 59.51459 | 24.78858 | 6612 ft | 285 kts | 5° |
| 2026-05-05 14:44 | 59.53422 | 24.79677 | 7405 ft | 291 kts | 4° |
| 2026-05-05 14:44 | 59.55405 | 24.80455 | 8276 ft | 296 kts | 3° |
| 2026-05-05 14:44 | 59.57457 | 24.81374 | 9180 ft | 305 kts | 12° |
| 2026-05-05 14:44 | 59.59383 | 24.83240 | 9933 ft | 322 kts | 29° |
| 2026-05-05 14:45 | 59.61251 | 24.85967 | 10285 ft | 345 kts | 32° |
| 2026-05-05 14:45 | 59.63231 | 24.88932 | 10552 ft | 368 kts | 32° |
| 2026-05-05 14:45 | 59.65211 | 24.91947 | 11223 ft | 344 kts | 33° |
| 2026-05-05 14:45 | 59.67102 | 24.94852 | 11657 ft | 343 kts | 32° |
| 2026-05-05 14:46 | 59.68984 | 24.97729 | 11791 ft | 342 kts | 32° |
| 2026-05-05 14:46 | 59.70872 | 25.00598 | 11812 ft | 342 kts | 32° |
| 2026-05-05 14:46 | 59.72761 | 25.03460 | 11812 ft | 341 kts | 32° |
| 2026-05-05 14:46 | 59.74648 | 25.06312 | 11804 ft | 341 kts | 32° |
| 2026-05-05 14:47 | 59.76539 | 25.09173 | 11802 ft | 342 kts | 32° |
| 2026-05-05 14:47 | 59.78428 | 25.12039 | 11801 ft | 342 kts | 32° |
| 2026-05-05 14:47 | 59.80317 | 25.14911 | 11801 ft | 342 kts | 32° |
| 2026-05-05 14:47 | 59.82243 | 25.17648 | 11811 ft | 339 kts | 26° |
| 2026-05-05 14:48 | 59.84290 | 25.19921 | 11800 ft | 334 kts | 18° |
| 2026-05-05 14:48 | 59.86417 | 25.21756 | 11718 ft | 333 kts | 14° |
| 2026-05-05 14:48 | 59.88592 | 25.23220 | 11330 ft | 327 kts | 6° |
| 2026-05-05 14:48 | 59.90793 | 25.24160 | 10949 ft | 321 kts | 359° |
| 2026-05-05 14:49 | 59.92993 | 25.24581 | 10579 ft | 314 kts | 352° |
| 2026-05-05 14:49 | 59.95149 | 25.24511 | 10211 ft | 307 kts | 346° |
| 2026-05-05 14:49 | 59.97281 | 25.24201 | 9798 ft | 308 kts | 347° |
| 2026-05-05 14:49 | 59.99430 | 25.23893 | 9259 ft | 311 kts | 347° |
| 2026-05-05 14:50 | 60.01597 | 25.23586 | 8717 ft | 313 kts | 348° |
| 2026-05-05 14:50 | 60.03770 | 25.23277 | 8170 ft | 313 kts | 349° |
| 2026-05-05 14:50 | 60.05942 | 25.22969 | 7649 ft | 313 kts | 349° |
| 2026-05-05 14:50 | 60.08094 | 25.22667 | 7132 ft | 313 kts | 350° |
| 2026-05-05 14:51 | 60.10256 | 25.22365 | 6710 ft | 310 kts | 351° |
| 2026-05-05 14:51 | 60.12388 | 25.22067 | 6329 ft | 305 kts | 352° |
| 2026-05-05 14:51 | 60.14489 | 25.21771 | 5931 ft | 300 kts | 352° |
| 2026-05-05 14:51 | 60.16554 | 25.21474 | 5535 ft | 295 kts | 352° |
| 2026-05-05 14:52 | 60.18586 | 25.21183 | 5140 ft | 291 kts | 352° |
| 2026-05-05 14:52 | 60.20590 | 25.20893 | 4747 ft | 286 kts | 352° |
| 2026-05-05 14:52 | 60.22560 | 25.20605 | 4351 ft | 282 kts | 352° |
| 2026-05-05 14:52 | 60.24508 | 25.20325 | 3949 ft | 279 kts | 352° |
| 2026-05-05 14:53 | 60.26433 | 25.20051 | 3504 ft | 277 kts | 352° |
| 2026-05-05 14:53 | 60.28380 | 25.19767 | 2850 ft | 283 kts | 352° |
| 2026-05-05 14:53 | 60.30342 | 25.20028 | 2539 ft | 282 kts | 10° |
| 2026-05-05 14:53 | 60.32115 | 25.21481 | 2496 ft | 270 kts | 28° |
| 2026-05-05 14:54 | 60.33527 | 25.23839 | 2503 ft | 257 kts | 45° |
| 2026-05-05 14:54 | 60.34697 | 25.26442 | 2502 ft | 243 kts | 45° |
| 2026-05-05 14:54 | 60.35809 | 25.28877 | 2498 ft | 230 kts | 36° |
| 2026-05-05 14:54 | 60.37176 | 25.30163 | 2507 ft | 207 kts | 360° |
| 2026-05-05 14:55 | 60.38524 | 25.29845 | 2499 ft | 188 kts | 339° |
| 2026-05-05 14:55 | 60.39740 | 25.29070 | 2532 ft | 180 kts | 332° |
| 2026-05-05 14:55 | 60.40761 | 25.27786 | 2500 ft | 165 kts | 318° |
| 2026-05-05 14:55 | 60.41633 | 25.26393 | 2513 ft | 156 kts | 316° |
| 2026-05-05 14:56 | 60.42417 | 25.24930 | 2515 ft | 151 kts | 298° |
| 2026-05-05 14:56 | 60.42798 | 25.22989 | 2513 ft | 148 kts | 283° |
| 2026-05-05 14:56 | 60.42899 | 25.20945 | 2503 ft | 147 kts | 264° |
| 2026-05-05 14:56 | 60.42548 | 25.19012 | 2503 ft | 149 kts | 240° |
| 2026-05-05 14:57 | 60.41870 | 25.17425 | 2500 ft | 149 kts | 232° |
| 2026-05-05 14:57 | 60.41169 | 25.15867 | 2476 ft | 150 kts | 232° |
| 2026-05-05 14:57 | 60.40473 | 25.14320 | 2340 ft | 148 kts | 232° |
| 2026-05-05 14:57 | 60.39780 | 25.12779 | 2159 ft | 148 kts | 232° |
| 2026-05-05 14:58 | 60.39084 | 25.11234 | 1958 ft | 149 kts | 232° |
| 2026-05-05 14:58 | 60.38385 | 25.09683 | 1768 ft | 148 kts | 232° |
| 2026-05-05 14:58 | 60.37732 | 25.08238 | 1568 ft | 136 kts | 232° |
| 2026-05-05 14:58 | 60.37109 | 25.06859 | 1398 ft | 131 kts | 232° |
| 2026-05-05 14:59 | 60.36501 | 25.05522 | 1223 ft | 129 kts | 232° |
| 2026-05-05 14:59 | 60.35900 | 25.04186 | 1015 ft | 128 kts | 231° |
| 2026-05-05 14:59 | 60.35289 | 25.02859 | 840 ft | 130 kts | 230° |
| 2026-05-05 14:59 | 60.34677 | 25.01490 | 700 ft | 132 kts | 231° |
| 2026-05-05 15:00 | 60.34057 | 25.00111 | 506 ft | 136 kts | 231° |
| 2026-05-05 15:00 | 60.33636 | 24.99165 | 392 ft | 136 kts | 231° |
| 2026-05-05 15:00 | 60.32809 | 24.97338 | 193 ft | 123 kts | 230° |
| 2026-05-05 15:00 | 60.32317 | 24.96240 | 164 ft | 82 kts | 227° |
| 2026-05-05 15:01 | 60.32041 | 24.95636 | 160 ft | 42 kts | 228° |
| 2026-05-05 15:01 | 60.31854 | 24.95314 | 159 ft | 34 kts | 206° |
| 2026-05-05 15:01 | 60.31706 | 24.95202 | 158 ft | 19 kts | 197° |
| 2026-05-05 15:01 | 60.31631 | 24.95268 | 158 ft | 12 kts | 102° |
| 2026-05-05 15:02 | 60.31668 | 24.95383 | 158 ft | 9 kts | 50° |
| 2026-05-05 15:02 | 60.31704 | 24.95518 | 159 ft | 13 kts | 99° |
| 2026-05-05 15:02 | 60.31648 | 24.95651 | 160 ft | 12 kts | 119° |
| 2026-05-05 15:02 | 60.31673 | 24.95782 | 161 ft | 12 kts | 47° |
| 2026-05-05 15:03 | 60.31726 | 24.95904 | 162 ft | 6 kts | 72° |
| 2026-05-05 15:03 | 60.31715 | 24.95948 | 163 ft | 4 kts | 128° |
| 2026-05-05 15:03 | 60.31674 | 24.96024 | 164 ft | 2 kts | 137° |